KAWO/AWO METAR and TAF weather

Enter ICAO airport designator
Station Type Date Time Source
KAWO METAR 2020/01/21 17:56 UTC NOAA

KAWO 211756Z AUTO 13013KT 10SM FEW050 08/05 A2972 RMK AO2 RAB00E11 SLP069 P0000 60017 T00830050 10083 20072 51015


Station Type Date Time Source
KAWO Decoded METAR 2020/01/21 17:56 UTC NOAA

Arlington Municipal, WA, United States (KAWO) 48-10N 122-10W
Jan 21, 2020 - 12:56 PM EST / 2020.01.21 1756 UTC
Wind: from the SE (130 degrees) at 15 MPH (13 KT):0
Visibility: 10 mile(s):0
Sky conditions: mostly clear
Precipitation last hour: A trace
Temperature: 46.9 F (8.3 C)
Dew Point: 41.0 F (5.0 C)
Relative Humidity: 79%
Pressure (altimeter): 29.72 in. Hg (1006 hPa)
Pressure tendency: 0.04 inches (1.5 hPa) higher than three hours ago
ob: KAWO 211756Z AUTO 13013KT 10SM FEW050 08/05 A2972 RMK AO2 RAB00E11 SLP069 P0000 60017 T00830050 10083 20072 51015
cycle: 18

Station Type Date Time Source
KAWO TAF UTC NOAA

Error!

Example: see airport list